Time;durP1;ratioP1;P1;durP2;ratioP2;P2;SDS_P1;SDS_P2;PMS_P1;PMS_P2;Temp;Humidity;BMP_temperature;BMP_pressure;BME280_temperature;BME280_humidity;BME280_pressure;Samples;Min_cycle;Max_cycle;Signal;HPM_P1;HPM_P2
2023/05/24 00:01:43;;;;;;;13.98;2.20;;;;;;;11.11;85.97;102414.00;5003581;28;20046;-69
2023/05/24 00:04:10;;;;;;;13.50;2.40;;;;;;;11.12;87.26;102410.44;5009663;28;20297;-71
2023/05/24 00:06:37;;;;;;;13.18;2.90;;;;;;;11.11;86.54;102414.84;5010644;28;20163;-69
2023/05/24 00:09:04;;;;;;;10.60;2.28;;;;;;;11.07;85.54;102403.75;4998652;28;20115;-69
2023/05/24 00:11:31;;;;;;;10.63;2.22;;;;;;;11.08;85.17;102404.56;5003561;28;20046;-69
2023/05/24 00:13:57;;;;;;;12.05;2.67;;;;;;;11.02;86.10;102394.53;5017217;28;20049;-69
2023/05/24 00:16:24;;;;;;;21.58;2.92;;;;;;;10.97;88.17;102400.09;5022340;28;20057;-69
2023/05/24 00:18:51;;;;;;;11.20;2.83;;;;;;;10.95;86.37;102399.34;4982851;28;20510;-70
2023/05/24 00:21:17;;;;;;;11.68;2.63;;;;;;;10.85;89.74;102396.56;5012150;28;20137;-70
2023/05/24 00:23:44;;;;;;;16.60;2.38;;;;;;;10.83;88.97;102393.19;5002812;28;20100;-69
2023/05/24 00:26:11;;;;;;;12.15;2.35;;;;;;;10.78;91.76;102387.47;4986142;28;20046;-69
2023/05/24 00:28:37;;;;;;;16.52;3.70;;;;;;;10.71;91.70;102390.63;5009184;28;20042;-68
2023/05/24 00:31:04;;;;;;;15.20;3.45;;;;;;;10.66;91.76;102381.28;4996859;28;20666;-69
2023/05/24 00:33:30;;;;;;;16.10;4.32;;;;;;;10.58;94.03;102380.13;5022282;28;20068;-69
2023/05/24 00:35:57;;;;;;;12.10;2.22;;;;;;;10.54;95.69;102378.69;4977004;28;20084;-69
2023/05/24 00:38:27;;;;;;;9.73;2.00;;;;;;;10.52;94.28;102378.78;5002037;28;20053;-69
2023/05/24 00:40:59;;;;;;;17.75;2.83;;;;;;;10.35;97.20;102374.75;5001911;28;20060;-69
2023/05/24 00:43:25;;;;;;;13.88;2.63;;;;;;;10.35;96.08;102372.13;5005552;28;20056;-70
2023/05/24 00:46:21;;;;;;;10.77;2.72;;;;;;;10.31;98.60;102377.66;4989853;28;20054;-68
2023/05/24 00:48:48;;;;;;;12.13;2.75;;;;;;;10.28;97.20;102378.69;4980466;28;20049;-69
2023/05/24 00:51:15;;;;;;;12.48;2.42;;;;;;;10.28;96.23;102376.06;4982904;28;20127;-69
2023/05/24 00:53:47;;;;;;;10.00;2.40;;;;;;;10.20;99.60;102373.16;5001562;28;20054;-70
2023/05/24 00:56:15;;;;;;;15.38;2.45;;;;;;;10.17;100.00;102365.47;4990415;28;20077;-68
2023/05/24 00:58:42;;;;;;;14.75;3.03;;;;;;;10.16;99.81;102375.13;5001521;28;20061;-69
2023/05/24 01:01:09;;;;;;;8.68;2.35;;;;;;;10.13;99.72;102362.22;5008670;28;20534;-69
2023/05/24 01:03:36;;;;;;;13.15;2.90;;;;;;;10.15;100.00;102367.38;5002322;28;20046;-69
2023/05/24 01:06:05;;;;;;;11.10;2.38;;;;;;;10.14;99.61;102361.28;4996374;28;20057;-69
2023/05/24 01:09:06;;;;;;;17.30;3.42;;;;;;;10.10;100.00;102360.66;5009203;28;20135;-69
2023/05/24 01:11:56;;;;;;;12.18;2.05;;;;;;;10.04;100.00;102363.72;4997904;28;20045;-69
2023/05/24 01:14:47;;;;;;;14.00;2.63;;;;;;;9.98;100.00;102371.16;5001242;28;20104;-69
2023/05/24 01:17:31;;;;;;;12.25;3.15;;;;;;;9.90;100.00;102371.69;5010451;28;20694;-68
2023/05/24 01:20:05;;;;;;;10.27;2.47;;;;;;;9.85;100.00;102365.91;5000958;28;20053;-69
2023/05/24 01:22:47;;;;;;;9.45;2.50;;;;;;;9.84;100.00;102364.19;5002148;28;20523;-69
2023/05/24 01:25:37;;;;;;;11.50;2.30;;;;;;;9.80;100.00;102366.22;5004399;28;20089;-69
2023/05/24 01:28:07;;;;;;;14.82;3.33;;;;;;;9.78;100.00;102364.63;4983306;28;20140;-68
2023/05/24 01:30:35;;;;;;;11.25;2.72;;;;;;;9.77;100.00;102363.78;5006220;28;20615;-69
2023/05/24 01:33:02;;;;;;;16.27;2.60;;;;;;;9.74;100.00;102363.16;4995730;28;20057;-69
2023/05/24 01:35:29;;;;;;;8.75;2.15;;;;;;;9.74;99.75;102369.25;4988319;28;20049;-68
2023/05/24 01:37:55;;;;;;;9.25;2.13;;;;;;;9.69;100.00;102358.22;4986059;28;20050;-69
2023/05/24 01:40:22;;;;;;;9.90;2.53;;;;;;;9.69;100.00;102366.94;4998969;28;20133;-70
2023/05/24 01:42:56;;;;;;;9.02;2.15;;;;;;;9.68;100.00;102367.03;5005401;28;20133;-70
2023/05/24 01:45:32;;;;;;;19.23;2.20;;;;;;;9.64;100.00;102374.28;4994846;28;20402;-69
2023/05/24 01:48:20;;;;;;;13.70;2.45;;;;;;;9.65;100.00;102369.88;5002294;28;20149;-69
2023/05/24 01:51:04;;;;;;;14.82;3.20;;;;;;;9.63;100.00;102369.97;5000134;28;20096;-70
2023/05/24 01:53:40;;;;;;;10.18;2.28;;;;;;;9.65;100.00;102375.09;5022041;28;20417;-70
2023/05/24 01:56:08;;;;;;;15.70;2.45;;;;;;;9.61;100.00;102365.78;5012337;28;20089;-67
2023/05/24 01:58:36;;;;;;;;;;;;;;;9.63;100.00;102369.97;5004905;28;20576;-67
2023/05/24 02:01:03;;;;;;;13.55;2.47;;;;;;;9.60;100.00;102371.94;4999620;28;20230;-67
2023/05/24 02:03:30;;;;;;;12.52;2.03;;;;;;;9.53;100.00;102375.94;4982528;28;20058;-68
2023/05/24 02:05:56;;;;;;;10.15;2.50;;;;;;;9.52;100.00;102372.44;5008454;28;20437;-68
2023/05/24 02:08:23;;;;;;;13.25;2.42;;;;;;;9.50;100.00;102372.53;4987618;28;20475;-67
2023/05/24 02:10:49;;;;;;;11.07;3.03;;;;;;;9.52;100.00;102369.00;5005752;28;20046;-68
2023/05/24 02:13:17;;;;;;;9.77;2.28;;;;;;;9.50;100.00;102367.31;4995067;28;20056;-67
2023/05/24 02:15:43;;;;;;;9.35;1.92;;;;;;;9.48;100.00;102363.13;5002167;28;20045;-67
2023/05/24 02:18:10;;;;;;;10.02;2.22;;;;;;;9.48;100.00;102371.81;5001023;28;20064;-67
2023/05/24 02:20:36;;;;;;;11.32;2.53;;;;;;;9.46;100.00;102371.06;5000848;28;20092;-67
2023/05/24 02:23:03;;;;;;;11.43;2.35;;;;;;;9.46;100.00;102372.84;4988271;28;20052;-67
2023/05/24 02:25:30;;;;;;;13.23;2.67;;;;;;;9.39;100.00;102366.31;4995213;28;20539;-67
2023/05/24 02:27:58;;;;;;;12.32;2.20;;;;;;;9.33;100.00;102374.59;5001975;28;20494;-66
2023/05/24 02:30:25;;;;;;;14.70;2.57;;;;;;;9.24;100.00;102373.44;4993862;28;20088;-67
2023/05/24 02:32:51;;;;;;;11.73;2.50;;;;;;;9.25;100.00;102370.72;5006034;28;20319;-68
2023/05/24 02:35:19;;;;;;;12.38;2.53;;;;;;;9.25;100.00;102367.22;4988228;28;20112;-67
2023/05/24 02:37:45;;;;;;;17.55;2.60;;;;;;;9.22;100.00;102364.84;4998229;28;20050;-67
2023/05/24 02:40:12;;;;;;;8.13;2.08;;;;;;;9.14;100.00;102362.72;5006100;28;20089;-68
2023/05/24 02:42:39;;;;;;;11.50;2.50;;;;;;;9.13;100.00;102374.09;4984413;28;20054;-67
2023/05/24 02:45:06;;;;;;;12.05;2.25;;;;;;;9.08;100.00;102370.97;5002623;28;20083;-67
2023/05/24 02:47:32;;;;;;;14.23;2.90;;;;;;;9.08;100.00;102377.03;4982630;28;20058;-67
2023/05/24 02:49:59;;;;;;;17.63;4.25;;;;;;;9.10;100.00;102375.16;5005120;28;20053;-68
2023/05/24 02:52:25;;;;;;;14.32;2.33;;;;;;;9.16;100.00;102378.31;5005701;28;20052;-67
2023/05/24 02:54:52;;;;;;;15.52;3.03;;;;;;;9.11;100.00;102368.13;4998117;28;20054;-68
2023/05/24 02:57:18;;;;;;;10.35;2.40;;;;;;;9.15;100.00;102372.22;4998915;28;20492;-67
2023/05/24 02:59:45;;;;;;;10.95;2.63;;;;;;;9.07;100.00;102370.09;4982443;28;20085;-67
2023/05/24 03:02:14;;;;;;;9.50;2.05;;;;;;;9.08;100.00;102361.31;5017429;28;20042;-69
2023/05/24 03:04:40;;;;;;;11.95;2.58;;;;;;;9.09;100.00;102370.00;5000970;28;20060;-66
2023/05/24 03:07:07;;;;;;;12.43;2.58;;;;;;;9.10;100.00;102362.06;5020210;28;20050;-67
2023/05/24 03:09:33;;;;;;;9.35;2.70;;;;;;;9.12;100.00;102367.22;4994501;28;20061;-67
2023/05/24 03:12:00;;;;;;;11.73;3.17;;;;;;;9.10;100.00;102364.69;4976827;28;20062;-67
2023/05/24 03:14:27;;;;;;;9.10;2.67;;;;;;;9.02;100.00;102356.50;5004532;28;20052;-67
2023/05/24 03:16:53;;;;;;;11.38;2.65;;;;;;;9.00;100.00;102353.13;4990093;28;20056;-67
2023/05/24 03:19:20;;;;;;;6.97;2.58;;;;;;;8.96;100.00;102356.03;5005099;28;20137;-68
2023/05/24 03:21:46;;;;;;;9.63;2.63;;;;;;;8.94;100.00;102355.28;5004348;28;20079;-66
2023/05/24 03:24:13;;;;;;;11.70;3.20;;;;;;;8.89;100.00;102345.13;4984780;28;20066;-67
2023/05/24 03:26:39;;;;;;;11.68;3.20;;;;;;;8.90;100.00;102352.06;4992579;28;20049;-66
2023/05/24 03:29:06;;;;;;;11.00;2.60;;;;;;;8.87;100.00;102347.81;4999671;28;20528;-67
2023/05/24 03:31:32;;;;;;;10.60;2.50;;;;;;;8.84;100.00;102344.56;4995122;28;20136;-68
2023/05/24 03:33:59;;;;;;;14.25;3.08;;;;;;;8.81;100.00;102337.75;4998524;28;20091;-67
2023/05/24 03:36:27;;;;;;;13.48;2.90;;;;;;;8.85;100.00;102343.63;5020016;28;20050;-68
2023/05/24 03:38:56;;;;;;;10.95;2.85;;;;;;;8.87;100.00;102350.44;4987630;28;20057;-69
2023/05/24 03:41:23;;;;;;;11.90;3.08;;;;;;;8.83;100.00;102345.50;5000340;28;20056;-66
2023/05/24 03:43:51;;;;;;;14.80;3.20;;;;;;;8.83;100.00;102354.19;5004372;28;20129;-68
2023/05/24 03:46:17;;;;;;;9.25;3.00;;;;;;;8.77;100.00;102348.53;4981263;28;20294;-68
2023/05/24 03:48:44;;;;;;;10.07;3.40;;;;;;;8.73;100.00;102354.88;5004853;28;20410;-67
2023/05/24 03:51:11;;;;;;;8.80;2.85;;;;;;;8.74;100.00;102349.53;4995707;28;20176;-68
2023/05/24 03:53:37;;;;;;;12.95;3.13;;;;;;;8.76;100.00;102347.69;4982881;28;20824;-66
2023/05/24 03:56:04;;;;;;;10.15;3.35;;;;;;;8.75;100.00;102348.63;4998365;28;20054;-67
2023/05/24 03:58:30;;;;;;;11.63;3.22;;;;;;;8.75;100.00;102339.94;4986902;28;20061;-67
2023/05/24 04:00:57;;;;;;;10.68;4.05;;;;;;;8.78;100.00;102342.34;4987773;28;20472;-66
2023/05/24 04:03:24;;;;;;;11.73;3.05;;;;;;;8.76;100.00;102345.06;4996287;28;20140;-67
2023/05/24 04:05:52;;;;;;;10.65;3.17;;;;;;;8.70;100.00;102338.44;4984413;28;20512;-67
2023/05/24 04:08:19;;;;;;;7.90;3.05;;;;;;;8.71;100.00;102334.88;4994442;28;20058;-67
2023/05/24 04:10:45;;;;;;;15.93;4.13;;;;;;;8.70;100.00;102338.44;5003127;28;20923;-66
2023/05/24 04:13:12;;;;;;;8.23;3.20;;;;;;;8.73;100.00;102347.03;5017704;28;20566;-68
2023/05/24 04:15:38;;;;;;;12.15;3.33;;;;;;;8.77;100.00;102348.53;4988362;28;20046;-67
2023/05/24 04:18:05;;;;;;;11.23;3.40;;;;;;;8.69;100.00;102343.78;5005246;28;20490;-67
2023/05/24 04:20:31;;;;;;;9.75;3.75;;;;;;;8.73;100.00;102344.44;4991362;28;20081;-70
2023/05/24 04:22:58;;;;;;;9.60;4.15;;;;;;;8.76;100.00;102344.22;4984991;28;20084;-68
2023/05/24 04:25:25;;;;;;;16.20;3.72;;;;;;;8.83;100.00;102340.28;4989135;28;20060;-67
2023/05/24 04:27:52;;;;;;;14.70;3.53;;;;;;;8.87;100.00;102341.75;5002896;28;20165;-68
2023/05/24 04:30:20;;;;;;;9.80;3.30;;;;;;;8.89;100.00;102355.59;4999094;28;20061;-67
2023/05/24 04:32:47;;;;;;;14.55;3.88;;;;;;;8.90;100.00;102346.81;4998561;28;20128;-69
2023/05/24 04:35:14;;;;;;;10.75;3.83;;;;;;;8.96;100.00;102350.78;4982613;28;20685;-67
2023/05/24 04:37:40;;;;;;;14.90;4.25;;;;;;;9.01;100.00;102361.81;4997255;28;20081;-69
2023/05/24 04:40:08;;;;;;;13.15;3.85;;;;;;;9.05;100.00;102358.88;5019822;28;20706;-69
2023/05/24 04:42:34;;;;;;;13.23;3.28;;;;;;;9.09;100.00;102356.91;5000390;28;20061;-69
2023/05/24 04:45:01;;;;;;;17.05;4.05;;;;;;;9.15;100.00;102363.53;5008087;28;20265;-70
2023/05/24 04:47:28;;;;;;;15.55;4.40;;;;;;;9.15;100.00;102369.59;4998026;28;20142;-69
2023/05/24 04:49:55;;;;;;;15.80;3.65;;;;;;;9.20;100.00;102362.31;4985560;28;20054;-68
2023/05/24 04:52:21;;;;;;;17.48;4.00;;;;;;;9.25;100.00;102367.22;5010037;28;20088;-69
2023/05/24 04:54:48;;;;;;;15.43;4.15;;;;;;;9.34;100.00;102371.06;5001828;28;20061;-70
2023/05/24 04:57:15;;;;;;;18.00;4.00;;;;;;;9.42;100.00;102361.72;5007018;28;20085;-69
2023/05/24 04:59:42;;;;;;;18.70;4.15;;;;;;;9.43;100.00;102362.59;4999283;28;20046;-69
2023/05/24 05:02:09;;;;;;;16.73;4.20;;;;;;;9.47;100.00;102359.66;5002533;28;20050;-69
2023/05/24 05:04:35;;;;;;;15.90;3.67;;;;;;;9.56;100.00;102362.59;4998968;28;20058;-68
2023/05/24 05:07:02;;;;;;;17.33;3.88;;;;;;;9.67;100.00;102363.56;4989496;28;20653;-68
2023/05/24 05:09:29;;;;;;;14.75;3.67;;;;;;;9.81;100.00;102365.25;5007647;28;20489;-68
2023/05/24 05:11:55;;;;;;;15.82;3.90;;;;;;;9.90;100.00;102361.19;5001699;28;20129;-69
2023/05/24 05:14:22;;;;;;;14.50;3.50;;;;;;;9.97;100.00;102364.22;5021201;28;20152;-70
2023/05/24 05:16:48;;;;;;;15.00;3.55;;;;;;;9.99;100.00;102362.34;4994478;28;20137;-70
2023/05/24 05:19:15;;;;;;;16.40;3.75;;;;;;;10.00;100.00;102356.16;5006984;28;20065;-69
2023/05/24 05:21:41;;;;;;;21.80;3.70;;;;;;;10.05;100.00;102364.53;5002633;28;20104;-69
2023/05/24 05:24:08;;;;;;;18.27;4.47;;;;;;;10.07;100.00;102358.25;4989379;28;20608;-69
2023/05/24 05:26:35;;;;;;;14.73;4.47;;;;;;;10.14;100.00;102374.41;5006612;28;20137;-69
2023/05/24 05:29:01;;;;;;;19.67;4.60;;;;;;;10.20;100.00;102367.91;4979640;28;20052;-69
2023/05/24 05:31:28;;;;;;;17.40;4.53;;;;;;;10.28;100.00;102361.16;5002235;28;20140;-69
2023/05/24 05:33:55;;;;;;;18.35;4.20;;;;;;;10.37;100.00;102356.25;5001012;28;20084;-69
2023/05/24 05:36:21;;;;;;;20.98;4.70;;;;;;;10.39;100.00;102356.97;4995658;28;20104;-70
2023/05/24 05:38:48;;;;;;;17.17;4.47;;;;;;;10.46;100.00;102366.94;4994974;28;20053;-70
2023/05/24 05:41:14;;;;;;;17.13;4.28;;;;;;;10.52;100.00;102359.59;5019356;28;20049;-69
2023/05/24 05:43:41;;;;;;;18.10;3.92;;;;;;;10.57;100.00;102357.50;5003038;28;20050;-69
2023/05/24 05:46:07;;;;;;;15.55;3.67;;;;;;;10.64;100.00;102361.34;5012144;28;20078;-69
2023/05/24 05:48:34;;;;;;;22.83;4.63;;;;;;;10.73;100.00;102360.69;5008561;28;20050;-69
2023/05/24 05:51:00;;;;;;;19.92;4.55;;;;;;;10.80;100.00;102369.81;5016051;28;20046;-69
2023/05/24 05:53:27;;;;;;;19.30;4.57;;;;;;;10.86;100.00;102369.38;5005862;28;20092;-69
2023/05/24 05:55:55;;;;;;;15.70;4.40;;;;;;;10.95;100.00;102361.78;4982352;28;20081;-69
2023/05/24 05:58:21;;;;;;;13.75;4.30;;;;;;;11.00;100.00;102367.53;4996387;28;20050;-70
2023/05/24 06:00:48;;;;;;;17.25;4.75;;;;;;;11.08;100.00;102362.56;4986273;28;20120;-69
2023/05/24 06:03:14;;;;;;;15.25;4.38;;;;;;;11.13;100.00;102362.22;4999521;28;20657;-69
2023/05/24 06:05:41;;;;;;;16.00;4.78;;;;;;;11.19;100.00;102369.63;5006851;28;20073;-69
2023/05/24 06:08:07;;;;;;;13.55;3.88;;;;;;;11.33;100.00;102373.88;5000157;28;20117;-69
2023/05/24 06:10:34;;;;;;;18.67;4.53;;;;;;;11.39;100.00;102373.44;5002500;28;20183;-69
2023/05/24 06:13:02;;;;;;;16.92;4.78;;;;;;;11.47;100.00;102374.53;4976988;28;20056;-69
2023/05/24 06:15:28;;;;;;;17.88;4.45;;;;;;;11.48;100.00;102373.56;5005000;28;20053;-69
2023/05/24 06:17:55;;;;;;;19.65;4.25;;;;;;;11.55;100.00;102373.16;4988253;28;20489;-69
2023/05/24 06:20:22;;;;;;;18.90;4.80;;;;;;;11.63;100.00;102376.03;4989862;28;20210;-70
2023/05/24 06:22:49;;;;;;;18.48;4.47;;;;;;;11.72;100.00;102385.00;5020810;28;20715;-70
2023/05/24 06:25:19;;;;;;;21.80;4.40;;;;;;;11.80;100.00;102391.38;4996976;28;20049;-69
2023/05/24 06:27:46;;;;;;;17.45;4.22;;;;;;;11.82;100.00;102393.88;5002068;28;20060;-70
2023/05/24 06:30:12;;;;;;;13.93;3.78;;;;;;;11.91;100.00;102395.81;5002525;28;20480;-69
2023/05/24 06:32:39;;;;;;;20.10;4.63;;;;;;;12.06;100.00;102396.47;5004009;28;20057;-69
2023/05/24 06:35:06;;;;;;;16.27;3.80;;;;;;;12.15;100.00;102398.41;5001632;28;20478;-69
2023/05/24 06:37:33;;;;;;;19.63;5.30;;;;;;;12.25;100.00;102395.88;4997661;28;20092;-70
2023/05/24 06:40:00;;;;;;;12.55;4.07;;;;;;;12.43;100.00;102397.09;5001308;28;20057;-70
2023/05/24 06:42:27;;;;;;;15.40;3.70;;;;;;;12.56;100.00;102406.63;4995283;28;20056;-70
2023/05/24 06:44:53;;;;;;;18.40;3.95;;;;;;;12.69;100.00;102406.53;5005180;28;20050;-71
2023/05/24 06:47:21;;;;;;;14.57;4.03;;;;;;;12.66;100.00;102410.22;5000649;28;20046;-71
2023/05/24 06:49:48;;;;;;;17.83;4.13;;;;;;;12.76;100.00;102412.94;5005828;28;20041;-70
2023/05/24 06:52:15;;;;;;;18.20;4.10;;;;;;;12.83;100.00;102409.72;5002930;28;20401;-71
2023/05/24 06:54:41;;;;;;;14.02;3.53;;;;;;;12.97;100.00;102410.41;4992943;28;20069;-70
2023/05/24 06:57:08;;;;;;;19.75;4.40;;;;;;;13.14;100.00;102403.78;5004615;28;20149;-69
2023/05/24 06:59:35;;;;;;;13.70;3.63;;;;;;;13.30;99.22;102400.78;5000388;28;20141;-70
2023/05/24 07:02:01;;;;;;;19.20;4.10;;;;;;;13.32;97.40;102402.31;5004727;28;20060;-69
2023/05/24 07:04:29;;;;;;;17.25;4.18;;;;;;;13.38;97.40;102403.59;5000251;28;20743;-69
2023/05/24 07:06:57;;;;;;;15.60;4.22;;;;;;;13.43;94.91;102414.63;4999603;28;20601;-70
2023/05/24 07:09:24;;;;;;;24.02;4.70;;;;;;;13.37;93.07;102408.06;4999784;28;20059;-70
2023/05/24 07:11:51;;;;;;;14.43;4.07;;;;;;;13.44;95.95;102406.56;4997321;28;20046;-68
2023/05/24 07:14:17;;;;;;;20.40;3.90;;;;;;;13.48;94.89;102414.22;5004281;28;20049;-68
2023/05/24 07:16:45;;;;;;;17.30;3.95;;;;;;;13.54;95.75;102419.00;4989163;28;20186;-69
2023/05/24 07:19:12;;;;;;;17.00;3.95;;;;;;;13.53;94.79;102423.44;5020635;28;20474;-70
2023/05/24 07:21:39;;;;;;;18.23;4.00;;;;;;;13.58;95.69;102420.41;4996227;28;20069;-68
2023/05/24 07:24:06;;;;;;;15.10;4.65;;;;;;;13.69;93.92;102420.38;4983276;28;20237;-70
2023/05/24 07:26:33;;;;;;;16.60;4.13;;;;;;;13.72;92.09;102422.75;4987161;28;20079;-69
2023/05/24 07:29:00;;;;;;;17.35;3.35;;;;;;;13.80;94.80;102420.31;4997487;28;20073;-69
2023/05/24 07:31:28;;;;;;;12.50;3.53;;;;;;;13.86;92.29;102413.69;4985390;28;20081;-70
2023/05/24 07:33:55;;;;;;;;;;;;;;;13.97;91.44;102418.03;4997039;28;20057;-68
2023/05/24 07:36:24;;;;;;;14.40;3.80;;;;;;;13.89;90.24;102413.41;4999557;28;19980;-68
2023/05/24 07:38:50;;;;;;;;;;;;;;;13.90;90.04;102415.09;4999881;28;20144;-68
2023/05/24 07:41:18;;;;;;;13.90;3.90;;;;;;;13.87;91.21;102414.53;5009674;28;20644;-69
2023/05/24 07:43:45;;;;;;;19.27;3.80;;;;;;;13.96;93.45;102413.75;4987712;28;20069;-69
2023/05/24 07:46:12;;;;;;;19.17;4.05;;;;;;;13.96;90.99;102413.75;4987381;28;20058;-70
2023/05/24 07:48:41;;;;;;;13.63;3.72;;;;;;;13.91;89.30;102408.84;5001412;28;20714;-70
2023/05/24 07:51:08;;;;;;;19.83;4.63;;;;;;;13.92;91.33;102409.69;4994853;28;20050;-68
2023/05/24 07:53:36;;;;;;;14.45;3.40;;;;;;;13.91;90.82;102398.28;4998539;28;20394;-70
2023/05/24 07:56:03;;;;;;;15.73;3.38;;;;;;;13.96;91.64;102403.19;4982673;28;20573;-70
2023/05/24 07:58:30;;;;;;;18.70;3.50;;;;;;;14.08;90.81;102402.16;5004183;28;20057;-69
2023/05/24 08:00:57;;;;;;;15.27;3.50;;;;;;;14.18;88.17;102403.03;5005002;28;20046;-69
2023/05/24 08:03:24;;;;;;;16.85;3.25;;;;;;;14.27;84.62;102404.06;4992481;28;20068;-70
2023/05/24 08:05:51;;;;;;;13.70;3.10;;;;;;;14.32;81.65;102403.66;4997281;28;20057;-70
2023/05/24 08:08:18;;;;;;;17.17;3.15;;;;;;;14.37;81.39;102390.91;4998369;28;20470;-69
2023/05/24 08:10:45;;;;;;;17.95;3.67;;;;;;;14.54;83.72;102390.25;5002685;28;20056;-70
2023/05/24 08:13:12;;;;;;;13.98;3.15;;;;;;;14.70;80.38;102394.22;4981192;28;20200;-69
2023/05/24 08:15:39;;;;;;;11.20;2.67;;;;;;;14.82;78.20;102390.50;5002926;28;20128;-69
2023/05/24 08:18:06;;;;;;;13.45;2.80;;;;;;;14.86;74.84;102383.97;4983305;28;20423;-69
2023/05/24 08:20:35;;;;;;;12.55;3.13;;;;;;;14.94;75.81;102384.13;5001259;28;20516;-70
2023/05/24 08:23:01;;;;;;;16.58;3.42;;;;;;;14.96;74.11;102394.56;5008378;28;20449;-70
2023/05/24 08:25:28;;;;;;;11.65;3.38;;;;;;;14.94;74.75;102389.41;4996726;28;20053;-69
2023/05/24 08:27:56;;;;;;;17.55;4.05;;;;;;;14.96;75.28;102390.09;5008477;28;20149;-69
2023/05/24 08:30:23;;;;;;;11.98;3.22;;;;;;;15.01;74.51;102389.69;4998061;28;20057;-69
2023/05/24 08:32:51;;;;;;;9.07;2.75;;;;;;;15.05;73.37;102385.78;5002999;28;20076;-69
2023/05/24 08:35:17;;;;;;;16.77;3.50;;;;;;;15.00;70.62;102385.38;4990143;28;20100;-70
2023/05/24 08:37:47;;;;;;;10.63;2.78;;;;;;;14.89;70.96;102386.31;5005687;28;20068;-69
2023/05/24 08:40:15;;;;;;;13.05;2.70;;;;;;;14.89;74.25;102386.31;5012763;28;20108;-69
2023/05/24 08:42:43;;;;;;;10.82;2.97;;;;;;;14.87;72.34;102387.44;4985108;28;20049;-69
2023/05/24 08:45:11;;;;;;;12.40;2.92;;;;;;;14.91;70.89;102391.47;4984556;28;20172;-69
2023/05/24 08:47:38;;;;;;;11.18;2.63;;;;;;;14.87;71.53;102387.44;4999317;28;20849;-70
2023/05/24 08:50:07;;;;;;;12.15;3.25;;;;;;;14.93;73.78;102390.38;4990554;28;20073;-70
2023/05/24 08:52:34;;;;;;;;;;;;;;;15.03;73.17;102387.75;5015402;28;20100;-70
2023/05/24 08:55:03;;;;;;;12.20;3.08;;;;;;;15.01;71.58;102385.25;4983803;28;20725;-70
2023/05/24 08:57:33;;;;;;;11.80;3.35;;;;;;;15.08;71.05;102379.41;5003628;28;20085;-70
2023/05/24 09:00:00;;;;;;;10.90;2.90;;;;;;;15.19;72.85;102379.25;5010325;28;20084;-71
2023/05/24 09:02:27;;;;;;;10.45;2.53;;;;;;;15.28;69.08;102380.25;5007783;28;20108;-72
2023/05/24 09:04:54;;;;;;;9.75;2.80;;;;;;;15.32;67.09;102386.94;5005277;28;20046;-68
2023/05/24 09:07:24;;;;;;;14.38;2.97;;;;;;;15.36;68.64;102381.22;5003359;28;20530;-70
2023/05/24 09:09:59;;;;;;;11.02;2.88;;;;;;;15.39;67.60;102386.22;5003406;28;20053;-70
2023/05/24 09:12:31;;;;;;;10.25;2.70;;;;;;;15.46;68.99;102381.22;5002341;28;20060;-69
2023/05/24 09:15:06;;;;;;;32.22;17.42;;;;;;;15.50;68.94;102395.81;5004756;28;20048;-68
2023/05/24 09:17:35;;;;;;;16.95;3.78;;;;;;;15.62;69.19;102389.41;4995968;28;20065;-68
2023/05/24 09:20:05;;;;;;;;;;;;;;;15.71;67.26;102379.78;5008845;28;20153;-68
2023/05/24 09:22:33;;;;;;;13.48;2.72;;;;;;;15.77;66.04;102383.72;5001883;28;20040;-70
2023/05/24 09:25:04;;;;;;;8.45;2.90;;;;;;;15.84;67.84;102381.31;5003737;28;20050;-69
2023/05/24 09:27:33;;;;;;;13.00;2.65;;;;;;;15.90;65.49;102383.41;4997361;28;20851;-69
2023/05/24 09:30:00;;;;;;;10.70;2.97;;;;;;;15.99;65.65;102386.03;5003717;28;20077;-69
2023/05/24 09:32:29;;;;;;;13.03;2.83;;;;;;;16.00;65.32;102385.03;5007196;28;20058;-69
2023/05/24 09:34:57;;;;;;;10.43;2.80;;;;;;;15.97;63.44;102387.97;5006178;28;20543;-69
2023/05/24 09:37:27;;;;;;;10.05;2.55;;;;;;;16.09;65.15;102393.09;5006185;28;20054;-70
2023/05/24 09:39:58;;;;;;;10.35;2.60;;;;;;;16.15;64.25;102387.22;4996774;28;20049;-69
2023/05/24 09:42:27;;;;;;;10.77;2.80;;;;;;;16.24;64.02;102385.53;5000770;28;20068;-70
2023/05/24 09:45:07;;;;;;;13.25;2.97;;;;;;;16.34;63.02;102383.66;5010133;28;20242;-70
2023/05/24 09:47:35;;;;;;;12.30;2.80;;;;;;;16.31;61.71;102383.97;5007483;28;20077;-70
2023/05/24 09:50:05;;;;;;;8.13;3.00;;;;;;;16.32;63.05;102386.44;5002102;28;20069;-71
2023/05/24 09:52:36;;;;;;;11.43;2.72;;;;;;;16.32;63.66;102386.44;4992699;28;20157;-70
2023/05/24 09:55:16;;;;;;;10.48;2.65;;;;;;;16.37;62.94;102386.03;5003136;28;20050;-70
2023/05/24 09:57:43;;;;;;;12.32;3.00;;;;;;;16.40;61.92;102385.72;5003142;28;20086;-71
2023/05/24 10:00:15;;;;;;;11.88;2.70;;;;;;;16.44;61.04;102388.91;5009027;28;20108;-70
2023/05/24 10:02:43;;;;;;;10.45;2.55;;;;;;;16.49;61.26;102379.56;4997393;28;20450;-71
2023/05/24 10:05:20;;;;;;;11.38;2.80;;;;;;;16.50;62.02;102378.56;4992973;28;20069;-70
2023/05/24 10:07:46;;;;;;;10.23;2.55;;;;;;;16.49;61.81;102379.56;5000324;28;20053;-70
2023/05/24 10:10:13;;;;;;;12.95;2.63;;;;;;;16.47;62.81;102381.50;5006296;28;20502;-70
2023/05/24 10:12:42;;;;;;;11.65;2.40;;;;;;;16.43;61.58;102381.97;5015918;28;20038;-70
2023/05/24 10:15:09;;;;;;;10.00;2.67;;;;;;;16.41;61.83;102382.09;5001990;28;20053;-70
2023/05/24 10:17:36;;;;;;;9.23;2.50;;;;;;;16.51;63.28;102387.34;5014962;28;20054;-70
2023/05/24 10:20:07;;;;;;;9.10;2.42;;;;;;;16.56;62.13;102385.06;5006273;28;20052;-71
2023/05/24 10:22:39;;;;;;;10.50;2.50;;;;;;;16.63;61.98;102388.81;4987714;28;20055;-71
2023/05/24 10:25:09;;;;;;;12.43;3.58;;;;;;;16.67;60.33;102389.34;4994655;28;20077;-70
2023/05/24 10:27:37;;;;;;;8.45;2.45;;;;;;;16.72;60.67;102382.63;5008165;28;20054;-71
2023/05/24 10:30:09;;;;;;;10.60;2.63;;;;;;;16.76;59.98;102388.47;5000086;28;20054;-70
2023/05/24 10:32:41;;;;;;;9.63;2.40;;;;;;;16.77;59.49;102390.13;5007563;28;20096;-70
2023/05/24 10:35:11;;;;;;;11.93;2.80;;;;;;;16.79;60.34;102383.69;5003692;28;20053;-70
2023/05/24 10:37:37;;;;;;;8.85;2.47;;;;;;;16.80;60.61;102380.06;4994760;28;20064;-70
2023/05/24 10:40:08;;;;;;;7.65;2.33;;;;;;;16.84;61.52;102391.25;5007020;28;20746;-69
2023/05/24 10:42:37;;;;;;;15.05;2.78;;;;;;;16.88;60.30;102378.53;4999359;28;20410;-70
2023/05/24 10:45:22;;;;;;;8.60;2.53;;;;;;;17.04;59.79;102388.47;5015972;28;20068;-70
2023/05/24 10:47:53;;;;;;;9.02;2.22;;;;;;;17.05;58.96;102387.44;4990650;28;20582;-70
2023/05/24 10:50:20;;;;;;;9.65;2.20;;;;;;;17.14;58.72;102382.09;4994752;28;20154;-70
2023/05/24 10:52:50;;;;;;;9.30;2.80;;;;;;;17.40;57.11;102381.31;5003202;28;20105;-71
2023/05/24 10:55:18;;;;;;;11.07;2.15;;;;;;;17.55;57.72;102376.28;4998924;28;20088;-70
2023/05/24 10:57:45;;;;;;;9.27;2.35;;;;;;;17.99;58.15;102370.94;5006003;28;20154;-70
2023/05/24 11:00:23;;;;;;;13.05;2.83;;;;;;;18.51;56.22;102368.19;4985913;28;20132;-71
2023/05/24 11:03:08;;;;;;;9.65;2.38;;;;;;;18.56;56.02;102370.34;5000733;28;20089;-70
2023/05/24 11:05:48;;;;;;;10.07;2.42;;;;;;;18.98;54.66;102358.03;4977970;28;20062;-70
2023/05/24 11:08:35;;;;;;;8.63;2.50;;;;;;;19.20;54.16;102353.88;4999111;28;20135;-70
2023/05/24 11:11:08;;;;;;;9.32;3.30;;;;;;;19.30;52.88;102350.06;4998787;28;20050;-70
2023/05/24 11:13:55;;;;;;;13.63;3.00;;;;;;;19.00;52.18;102348.06;5005085;28;20173;-70
2023/05/24 11:16:33;;;;;;;10.93;3.10;;;;;;;18.80;52.72;102352.84;4995799;28;20056;-70
2023/05/24 11:19:11;;;;;;;9.68;2.55;;;;;;;18.73;54.63;102358.78;4991603;28;20065;-70
2023/05/24 11:21:40;;;;;;;10.20;2.70;;;;;;;18.83;54.03;102363.16;5000136;28;20042;-71
2023/05/24 11:24:07;;;;;;;;;;;;;;;18.99;54.24;102357.03;4988526;28;20061;-69
2023/05/24 11:26:34;;;;;;;9.43;3.03;;;;;;;19.03;53.47;102353.03;4998193;28;19965;-70